sensor_id;sensor_type;location;lat;lon;timestamp;pressure;altitude;pressure_sealevel;temperature;humidity
63009;BME280;49099;28.428;-16.488;2023-03-16T00:00:17;98231.25;;;21.15;25.42
63009;BME280;49099;28.428;-16.488;2023-03-16T00:02:44;98228.03;;;21.09;21.68
63009;BME280;49099;28.428;-16.488;2023-03-16T00:05:13;98235.19;;;21.05;20.76
63009;BME280;49099;28.428;-16.488;2023-03-16T00:07:41;98222.72;;;21.01;20.48
63009;BME280;49099;28.428;-16.488;2023-03-16T00:10:10;98227.31;;;21.00;19.27
63009;BME280;49099;28.428;-16.488;2023-03-16T00:12:38;98223.63;;;21.05;17.99
63009;BME280;49099;28.428;-16.488;2023-03-16T00:15:11;98219.16;;;21.09;19.58
63009;BME280;49099;28.428;-16.488;2023-03-16T00:17:38;98210.81;;;21.14;18.21
63009;BME280;49099;28.428;-16.488;2023-03-16T00:20:06;98210.81;;;21.14;19.28
63009;BME280;49099;28.428;-16.488;2023-03-16T00:22:33;98225.41;;;21.13;24.92
63009;BME280;49099;28.428;-16.488;2023-03-16T00:25:00;98228.69;;;21.06;29.05
63009;BME280;49099;28.428;-16.488;2023-03-16T00:27:28;98223.19;;;21.03;29.04
63009;BME280;49099;28.428;-16.488;2023-03-16T00:29:55;98215.53;;;20.93;29.19
63009;BME280;49099;28.428;-16.488;2023-03-16T00:32:31;98215.44;;;20.89;29.41
63009;BME280;49099;28.428;-16.488;2023-03-16T00:34:59;98218.56;;;20.91;31.68
63009;BME280;49099;28.428;-16.488;2023-03-16T00:37:28;98216.44;;;20.97;27.06
63009;BME280;49099;28.428;-16.488;2023-03-16T00:39:55;98208.13;;;21.02;26.47
63009;BME280;49099;28.428;-16.488;2023-03-16T00:42:25;98212.94;;;21.08;31.21
63009;BME280;49099;28.428;-16.488;2023-03-16T00:44:54;98206.88;;;21.11;32.37
63009;BME280;49099;28.428;-16.488;2023-03-16T00:47:25;98198.34;;;21.09;25.56
63009;BME280;49099;28.428;-16.488;2023-03-16T00:49:52;98208.56;;;21.04;23.94
63009;BME280;49099;28.428;-16.488;2023-03-16T00:52:20;98203.63;;;21.06;27.62
63009;BME280;49099;28.428;-16.488;2023-03-16T00:54:48;98205.88;;;21.04;24.08
63009;BME280;49099;28.428;-16.488;2023-03-16T00:57:16;98205.44;;;21.02;28.78
63009;BME280;49099;28.428;-16.488;2023-03-16T00:59:45;98200.72;;;20.99;25.58
63009;BME280;49099;28.428;-16.488;2023-03-16T01:02:14;98202.97;;;20.97;24.37
63009;BME280;49099;28.428;-16.488;2023-03-16T01:04:42;98194.66;;;20.90;24.40
63009;BME280;49099;28.428;-16.488;2023-03-16T01:07:12;98207.69;;;20.88;28.08
63009;BME280;49099;28.428;-16.488;2023-03-16T01:09:41;98196.47;;;20.85;26.89
63009;BME280;49099;28.428;-16.488;2023-03-16T01:12:17;98187.56;;;20.85;29.01
63009;BME280;49099;28.428;-16.488;2023-03-16T01:14:55;98188.59;;;20.93;30.24
63009;BME280;49099;28.428;-16.488;2023-03-16T01:17:30;98189.72;;;20.92;22.06
63009;BME280;49099;28.428;-16.488;2023-03-16T01:20:16;98186.56;;;20.90;25.91
63009;BME280;49099;28.428;-16.488;2023-03-16T01:22:56;98179.84;;;20.96;26.02
63009;BME280;49099;28.428;-16.488;2023-03-16T01:25:30;98193.53;;;20.91;22.57
63009;BME280;49099;28.428;-16.488;2023-03-16T01:28:01;98215.78;;;20.75;43.43
63009;BME280;49099;28.428;-16.488;2023-03-16T01:30:29;98202.75;;;20.65;50.04
63009;BME280;49099;28.428;-16.488;2023-03-16T01:32:57;98204.75;;;20.44;51.27
63009;BME280;49099;28.428;-16.488;2023-03-16T01:35:41;98192.94;;;20.24;51.44
63009;BME280;49099;28.428;-16.488;2023-03-16T01:38:17;98199.31;;;20.19;49.79
63009;BME280;49099;28.428;-16.488;2023-03-16T01:41:00;98215.91;;;20.21;42.84
63009;BME280;49099;28.428;-16.488;2023-03-16T01:43:32;98202.19;;;20.14;42.37
63009;BME280;49099;28.428;-16.488;2023-03-16T01:51:41;98212.09;;;20.10;42.26
63009;BME280;49099;28.428;-16.488;2023-03-16T01:54:25;98221.03;;;20.02;46.86
63009;BME280;49099;28.428;-16.488;2023-03-16T01:57:26;98209.34;;;19.98;50.50
63009;BME280;49099;28.428;-16.488;2023-03-16T02:00:13;98207.75;;;19.85;50.96
63009;BME280;49099;28.428;-16.488;2023-03-16T02:02:55;98220.28;;;19.81;50.50
63009;BME280;49099;28.428;-16.488;2023-03-16T02:05:35;98219.84;;;19.79;50.40
63009;BME280;49099;28.428;-16.488;2023-03-16T02:08:05;98215.50;;;19.65;52.17
63009;BME280;49099;28.428;-16.488;2023-03-16T02:10:36;98211.00;;;19.57;51.84
63009;BME280;49099;28.428;-16.488;2023-03-16T02:13:04;98201.06;;;19.49;50.42
63009;BME280;49099;28.428;-16.488;2023-03-16T02:15:31;98201.72;;;19.46;50.02
63009;BME280;49099;28.428;-16.488;2023-03-16T02:18:01;98199.03;;;19.46;53.88
63009;BME280;49099;28.428;-16.488;2023-03-16T02:23:01;98188.00;;;19.39;56.69
63009;BME280;49099;28.428;-16.488;2023-03-16T02:25:50;98183.75;;;19.38;56.64
63009;BME280;49099;28.428;-16.488;2023-03-16T02:28:35;98177.56;;;19.37;56.83
63009;BME280;49099;28.428;-16.488;2023-03-16T02:31:05;98168.25;;;19.35;55.89
63009;BME280;49099;28.428;-16.488;2023-03-16T02:33:33;98173.19;;;19.33;55.90
63009;BME280;49099;28.428;-16.488;2023-03-16T02:36:01;98167.13;;;19.36;57.09
63009;BME280;49099;28.428;-16.488;2023-03-16T02:38:28;98165.84;;;19.42;56.16
63009;BME280;49099;28.428;-16.488;2023-03-16T02:41:13;98156.91;;;19.50;55.73
63009;BME280;49099;28.428;-16.488;2023-03-16T02:43:45;98162.69;;;19.40;54.65
63009;BME280;49099;28.428;-16.488;2023-03-16T02:46:26;98160.19;;;19.35;52.96
63009;BME280;49099;28.428;-16.488;2023-03-16T02:49:04;98146.03;;;19.26;51.38
63009;BME280;49099;28.428;-16.488;2023-03-16T02:51:32;98161.25;;;19.21;50.79
63009;BME280;49099;28.428;-16.488;2023-03-16T02:54:00;98168.84;;;19.19;47.38
63009;BME280;49099;28.428;-16.488;2023-03-16T02:56:27;98162.09;;;19.13;51.11
63009;BME280;49099;28.428;-16.488;2023-03-16T02:58:54;98150.09;;;19.11;53.10
63009;BME280;49099;28.428;-16.488;2023-03-16T03:01:23;98145.69;;;19.06;52.76
63009;BME280;49099;28.428;-16.488;2023-03-16T03:03:50;98138.19;;;19.00;54.44
63009;BME280;49099;28.428;-16.488;2023-03-16T03:06:18;98142.78;;;18.99;53.04
63009;BME280;49099;28.428;-16.488;2023-03-16T03:08:45;98141.84;;;18.95;56.01
63009;BME280;49099;28.428;-16.488;2023-03-16T03:11:12;98124.00;;;18.90;56.29
63009;BME280;49099;28.428;-16.488;2023-03-16T03:13:39;98115.09;;;18.78;52.89
63009;BME280;49099;28.428;-16.488;2023-03-16T03:16:10;98125.84;;;18.78;52.83
63009;BME280;49099;28.428;-16.488;2023-03-16T03:18:38;98118.69;;;18.82;51.68
63009;BME280;49099;28.428;-16.488;2023-03-16T03:21:06;98103.03;;;18.84;46.13
63009;BME280;49099;28.428;-16.488;2023-03-16T03:23:33;98100.34;;;18.84;45.13
63009;BME280;49099;28.428;-16.488;2023-03-16T03:26:01;98099.41;;;18.80;41.00
63009;BME280;49099;28.428;-16.488;2023-03-16T03:28:30;98093.59;;;18.78;40.44
63009;BME280;49099;28.428;-16.488;2023-03-16T03:31:00;98091.34;;;18.80;40.68
63009;BME280;49099;28.428;-16.488;2023-03-16T03:33:29;98093.19;;;18.88;38.79
63009;BME280;49099;28.428;-16.488;2023-03-16T03:35:59;98091.09;;;18.93;39.59
63009;BME280;49099;28.428;-16.488;2023-03-16T03:38:28;98087.19;;;18.91;35.82
63009;BME280;49099;28.428;-16.488;2023-03-16T03:40:55;98086.25;;;18.87;35.30
63009;BME280;49099;28.428;-16.488;2023-03-16T03:43:25;98080.88;;;18.87;36.15
63009;BME280;49099;28.428;-16.488;2023-03-16T03:45:59;98087.97;;;18.91;36.88
63009;BME280;49099;28.428;-16.488;2023-03-16T03:48:28;98083.56;;;18.87;36.15
63009;BME280;49099;28.428;-16.488;2023-03-16T03:50:55;98080.88;;;18.87;36.56
63009;BME280;49099;28.428;-16.488;2023-03-16T03:53:23;98074.19;;;18.93;39.52
63009;BME280;49099;28.428;-16.488;2023-03-16T03:55:50;98076.81;;;19.02;38.23
63009;BME280;49099;28.428;-16.488;2023-03-16T03:58:17;98081.66;;;19.08;40.11
63009;BME280;49099;28.428;-16.488;2023-03-16T04:00:44;98073.06;;;19.15;35.62
63009;BME280;49099;28.428;-16.488;2023-03-16T04:03:11;98069.81;;;19.21;36.32
63009;BME280;49099;28.428;-16.488;2023-03-16T04:05:40;98064.59;;;19.25;33.72
63009;BME280;49099;28.428;-16.488;2023-03-16T04:08:07;98057.31;;;19.26;32.65
63009;BME280;49099;28.428;-16.488;2023-03-16T04:10:34;98047.13;;;19.31;32.24
63009;BME280;49099;28.428;-16.488;2023-03-16T04:13:01;98051.97;;;19.38;32.46
63009;BME280;49099;28.428;-16.488;2023-03-16T04:15:29;98037.53;;;19.42;31.02
63009;BME280;49099;28.428;-16.488;2023-03-16T04:17:58;98047.84;;;19.53;32.06
63009;BME280;49099;28.428;-16.488;2023-03-16T04:20:26;98051.59;;;19.60;32.16
63009;BME280;49099;28.428;-16.488;2023-03-16T04:22:56;98046.78;;;19.66;35.60
63009;BME280;49099;28.428;-16.488;2023-03-16T04:25:26;98042.00;;;19.71;34.26
63009;BME280;49099;28.428;-16.488;2023-03-16T04:27:53;98041.44;;;19.78;37.15
63009;BME280;49099;28.428;-16.488;2023-03-16T04:30:21;98039.63;;;19.82;35.45
63009;BME280;49099;28.428;-16.488;2023-03-16T04:32:51;98037.50;;;19.88;35.97
63009;BME280;49099;28.428;-16.488;2023-03-16T04:35:18;98028.09;;;19.82;31.04
63009;BME280;49099;28.428;-16.488;2023-03-16T04:37:48;98031.81;;;19.77;31.77
63009;BME280;49099;28.428;-16.488;2023-03-16T04:40:18;98038.19;;;19.72;30.33
63009;BME280;49099;28.428;-16.488;2023-03-16T04:42:47;98044.34;;;19.73;30.58
63009;BME280;49099;28.428;-16.488;2023-03-16T04:45:15;98042.19;;;19.66;29.39
63009;BME280;49099;28.428;-16.488;2023-03-16T04:47:45;98039.41;;;19.75;34.08
63009;BME280;49099;28.428;-16.488;2023-03-16T04:50:13;98040.88;;;19.85;34.49
63009;BME280;49099;28.428;-16.488;2023-03-16T04:52:40;98036.28;;;19.85;31.76
63009;BME280;49099;28.428;-16.488;2023-03-16T04:55:08;98038.41;;;19.80;30.89
63009;BME280;49099;28.428;-16.488;2023-03-16T04:57:35;98043.22;;;19.74;31.40
63009;BME280;49099;28.428;-16.488;2023-03-16T05:00:03;98049.03;;;19.64;34.86
63009;BME280;49099;28.428;-16.488;2023-03-16T05:02:39;98052.72;;;19.59;35.59
63009;BME280;49099;28.428;-16.488;2023-03-16T05:05:07;98060.22;;;19.54;33.21
63009;BME280;49099;28.428;-16.488;2023-03-16T05:07:34;98049.84;;;19.43;35.17
63009;BME280;49099;28.428;-16.488;2023-03-16T05:10:02;98055.13;;;19.40;35.70
63009;BME280;49099;28.428;-16.488;2023-03-16T05:12:29;98056.00;;;19.44;35.53
63009;BME280;49099;28.428;-16.488;2023-03-16T05:14:56;98057.81;;;19.52;33.94
63009;BME280;49099;28.428;-16.488;2023-03-16T05:17:24;98061.44;;;19.56;35.32
63009;BME280;49099;28.428;-16.488;2023-03-16T05:19:51;98064.13;;;19.56;34.88
63009;BME280;49099;28.428;-16.488;2023-03-16T05:22:18;98053.84;;;19.58;33.96
63009;BME280;49099;28.428;-16.488;2023-03-16T05:24:45;98046.75;;;19.54;30.63
63009;BME280;49099;28.428;-16.488;2023-03-16T05:27:12;98040.34;;;19.46;29.68
63009;BME280;49099;28.428;-16.488;2023-03-16T05:29:40;98041.44;;;19.45;29.67
63009;BME280;49099;28.428;-16.488;2023-03-16T05:32:12;98050.00;;;19.47;28.82
63009;BME280;49099;28.428;-16.488;2023-03-16T05:34:39;98041.56;;;19.48;29.03
63009;BME280;49099;28.428;-16.488;2023-03-16T05:37:09;98047.41;;;19.51;28.46
63009;BME280;49099;28.428;-16.488;2023-03-16T05:39:36;98050.50;;;19.61;28.01
63009;BME280;49099;28.428;-16.488;2023-03-16T05:42:05;98054.97;;;19.57;29.03
63009;BME280;49099;28.428;-16.488;2023-03-16T05:44:32;98060.44;;;19.61;27.96
63009;BME280;49099;28.428;-16.488;2023-03-16T05:47:03;98069.50;;;19.56;32.94
63009;BME280;49099;28.428;-16.488;2023-03-16T05:49:33;98078.44;;;19.48;37.78
63009;BME280;49099;28.428;-16.488;2023-03-16T05:52:00;98065.72;;;19.36;41.67
63009;BME280;49099;28.428;-16.488;2023-03-16T05:54:27;98085.69;;;19.35;41.71
63009;BME280;49099;28.428;-16.488;2023-03-16T05:56:54;98088.81;;;19.37;41.65
63009;BME280;49099;28.428;-16.488;2023-03-16T05:59:22;98091.84;;;19.36;38.22
63009;BME280;49099;28.428;-16.488;2023-03-16T06:01:49;98096.59;;;19.39;38.11
63009;BME280;49099;28.428;-16.488;2023-03-16T06:04:16;98098.25;;;19.43;34.16
63009;BME280;49099;28.428;-16.488;2023-03-16T06:06:43;98104.91;;;19.46;36.64
63009;BME280;49099;28.428;-16.488;2023-03-16T06:09:10;98119.44;;;19.45;36.83
63009;BME280;49099;28.428;-16.488;2023-03-16T06:11:37;98118.72;;;19.36;34.68
63009;BME280;49099;28.428;-16.488;2023-03-16T06:14:05;98125.19;;;19.23;38.64
63009;BME280;49099;28.428;-16.488;2023-03-16T06:16:32;98123.38;;;19.14;35.53
63009;BME280;49099;28.428;-16.488;2023-03-16T06:18:59;98125.31;;;19.05;35.45
63009;BME280;49099;28.428;-16.488;2023-03-16T06:21:26;98130.41;;;18.98;38.50
63009;BME280;49099;28.428;-16.488;2023-03-16T06:23:53;98143.41;;;18.96;37.15
63009;BME280;49099;28.428;-16.488;2023-03-16T06:26:21;98136.13;;;18.97;40.89
63009;BME280;49099;28.428;-16.488;2023-03-16T06:28:48;98141.31;;;19.02;40.13
63009;BME280;49099;28.428;-16.488;2023-03-16T06:31:16;98144.78;;;19.02;38.30
63009;BME280;49099;28.428;-16.488;2023-03-16T06:33:43;98156.38;;;18.94;37.43
63009;BME280;49099;28.428;-16.488;2023-03-16T06:36:10;98159.00;;;19.03;32.60
63009;BME280;49099;28.428;-16.488;2023-03-16T06:38:37;98166.75;;;19.04;35.44
63009;BME280;49099;28.428;-16.488;2023-03-16T06:41:04;98159.53;;;18.96;31.32
63009;BME280;49099;28.428;-16.488;2023-03-16T06:43:32;98173.19;;;18.91;32.31
63009;BME280;49099;28.428;-16.488;2023-03-16T06:45:59;98174.81;;;18.83;36.47
63009;BME280;49099;28.428;-16.488;2023-03-16T06:48:27;98176.69;;;18.83;32.01
63009;BME280;49099;28.428;-16.488;2023-03-16T06:50:55;98185.84;;;18.82;33.80
63009;BME280;49099;28.428;-16.488;2023-03-16T06:53:22;98192.00;;;18.82;34.11
63009;BME280;49099;28.428;-16.488;2023-03-16T06:55:49;98192.00;;;18.82;33.92
63009;BME280;49099;28.428;-16.488;2023-03-16T06:58:17;98207.16;;;18.87;37.78
63009;BME280;49099;28.428;-16.488;2023-03-16T07:00:44;98201.78;;;18.87;40.17
63009;BME280;49099;28.428;-16.488;2023-03-16T07:03:11;98210.81;;;18.91;41.55
63009;BME280;49099;28.428;-16.488;2023-03-16T07:05:39;98206.22;;;18.83;41.05
63009;BME280;49099;28.428;-16.488;2023-03-16T07:08:07;98199.50;;;18.77;45.80
63009;BME280;49099;28.428;-16.488;2023-03-16T07:10:34;98208.66;;;18.76;47.66
63009;BME280;49099;28.428;-16.488;2023-03-16T07:13:02;98206.16;;;18.71;45.78
63009;BME280;49099;28.428;-16.488;2023-03-16T07:15:33;98206.94;;;18.71;47.50
63009;BME280;49099;28.428;-16.488;2023-03-16T07:18:00;98210.09;;;18.64;50.50
63009;BME280;49099;28.428;-16.488;2023-03-16T07:20:27;98197.50;;;18.56;47.72
63009;BME280;49099;28.428;-16.488;2023-03-16T07:22:57;98198.44;;;18.52;47.59
63009;BME280;49099;28.428;-16.488;2023-03-16T07:25:24;98202.25;;;18.51;48.38
63009;BME280;49099;28.428;-16.488;2023-03-16T07:27:51;98203.69;;;18.48;47.80
63009;BME280;49099;28.428;-16.488;2023-03-16T07:30:18;98210.19;;;18.47;48.04
63009;BME280;49099;28.428;-16.488;2023-03-16T07:32:46;98215.53;;;18.47;48.77
63009;BME280;49099;28.428;-16.488;2023-03-16T07:35:13;98209.19;;;18.52;49.76
63009;BME280;49099;28.428;-16.488;2023-03-16T07:37:40;98223.44;;;18.52;50.05
63009;BME280;49099;28.428;-16.488;2023-03-16T07:40:08;98230.06;;;18.55;49.42
63009;BME280;49099;28.428;-16.488;2023-03-16T07:42:36;98225.47;;;18.55;48.16
63009;BME280;49099;28.428;-16.488;2023-03-16T07:45:04;98238.56;;;18.57;47.81
63009;BME280;49099;28.428;-16.488;2023-03-16T07:47:31;98232.56;;;18.51;48.79
63009;BME280;49099;28.428;-16.488;2023-03-16T07:49:59;98232.44;;;18.48;52.42
63009;BME280;49099;28.428;-16.488;2023-03-16T07:52:27;98232.13;;;18.49;51.48
63009;BME280;49099;28.428;-16.488;2023-03-16T07:54:54;98228.16;;;18.55;49.91
63009;BME280;49099;28.428;-16.488;2023-03-16T07:57:21;98234.78;;;18.58;49.03
63009;BME280;49099;28.428;-16.488;2023-03-16T07:59:48;98244.88;;;18.61;49.99
63009;BME280;49099;28.428;-16.488;2023-03-16T08:02:18;98247.41;;;18.57;47.96
63009;BME280;49099;28.428;-16.488;2023-03-16T08:04:46;98252.31;;;18.55;51.30
63009;BME280;49099;28.428;-16.488;2023-03-16T08:07:14;98262.56;;;18.62;56.78
63009;BME280;49099;28.428;-16.488;2023-03-16T08:09:41;98261.91;;;18.65;60.08
63009;BME280;49099;28.428;-16.488;2023-03-16T08:12:08;98272.38;;;18.67;60.21
63009;BME280;49099;28.428;-16.488;2023-03-16T08:14:37;98273.31;;;18.71;59.30
63009;BME280;49099;28.428;-16.488;2023-03-16T08:17:05;98285.47;;;18.77;59.52
63009;BME280;49099;28.428;-16.488;2023-03-16T08:19:33;98287.34;;;18.85;58.84
63009;BME280;49099;28.428;-16.488;2023-03-16T08:22:00;98292.22;;;18.91;58.57
63009;BME280;49099;28.428;-16.488;2023-03-16T08:24:28;98299.28;;;18.96;59.78
63009;BME280;49099;28.428;-16.488;2023-03-16T08:26:57;98295.31;;;19.02;59.31
63009;BME280;49099;28.428;-16.488;2023-03-16T08:29:25;98291.47;;;19.12;60.78
63009;BME280;49099;28.428;-16.488;2023-03-16T08:31:53;98287.16;;;19.19;59.19
63009;BME280;49099;28.428;-16.488;2023-03-16T08:34:23;98282.84;;;19.27;60.72
63009;BME280;49099;28.428;-16.488;2023-03-16T08:36:50;98278.91;;;19.25;59.95
63009;BME280;49099;28.428;-16.488;2023-03-16T08:39:18;98289.00;;;19.28;59.73
63009;BME280;49099;28.428;-16.488;2023-03-16T08:41:46;98294.84;;;19.30;59.53
63009;BME280;49099;28.428;-16.488;2023-03-16T08:44:13;98288.38;;;19.31;59.35
63009;BME280;49099;28.428;-16.488;2023-03-16T08:46:41;98295.66;;;19.30;59.92
63009;BME280;49099;28.428;-16.488;2023-03-16T08:49:08;98287.75;;;19.25;58.69
63009;BME280;49099;28.428;-16.488;2023-03-16T08:51:35;98291.06;;;19.22;56.39
63009;BME280;49099;28.428;-16.488;2023-03-16T08:54:03;98292.97;;;19.21;55.81
63009;BME280;49099;28.428;-16.488;2023-03-16T08:56:30;98298.19;;;19.27;56.28
63009;BME280;49099;28.428;-16.488;2023-03-16T08:58:58;98296.44;;;19.31;57.65
63009;BME280;49099;28.428;-16.488;2023-03-16T09:01:25;98300.69;;;19.32;58.00
63009;BME280;49099;28.428;-16.488;2023-03-16T09:03:53;98306.66;;;19.37;58.04
63009;BME280;49099;28.428;-16.488;2023-03-16T09:06:20;98312.47;;;19.48;58.13
63009;BME280;49099;28.428;-16.488;2023-03-16T09:08:48;98306.75;;;19.49;57.58
63009;BME280;49099;28.428;-16.488;2023-03-16T09:11:16;98316.06;;;19.52;57.85
63009;BME280;49099;28.428;-16.488;2023-03-16T09:13:45;98309.56;;;19.53;57.74
63009;BME280;49099;28.428;-16.488;2023-03-16T09:16:14;98309.84;;;19.60;57.85
63009;BME280;49099;28.428;-16.488;2023-03-16T09:18:42;98311.25;;;19.66;57.55
63009;BME280;49099;28.428;-16.488;2023-03-16T09:21:10;98310.59;;;19.69;57.20
63009;BME280;49099;28.428;-16.488;2023-03-16T09:23:40;98314.28;;;19.65;57.18
63009;BME280;49099;28.428;-16.488;2023-03-16T09:26:09;98313.31;;;19.69;56.95
63009;BME280;49099;28.428;-16.488;2023-03-16T09:28:39;98311.50;;;19.73;57.44
63009;BME280;49099;28.428;-16.488;2023-03-16T09:31:12;98296.94;;;19.74;57.56
63009;BME280;49099;28.428;-16.488;2023-03-16T09:33:41;98297.59;;;19.71;57.70
63009;BME280;49099;28.428;-16.488;2023-03-16T09:36:08;98303.00;;;19.71;57.90
63009;BME280;49099;28.428;-16.488;2023-03-16T09:38:37;98296.94;;;19.74;58.34
63009;BME280;49099;28.428;-16.488;2023-03-16T09:46:44;98300.50;;;19.87;57.75
63009;BME280;49099;28.428;-16.488;2023-03-16T09:49:15;98309.16;;;19.93;58.55
63009;BME280;49099;28.428;-16.488;2023-03-16T09:52:34;98309.28;;;19.96;58.72
63009;BME280;49099;28.428;-16.488;2023-03-16T09:54:45;98315.25;;;20.02;59.26
63009;BME280;49099;28.428;-16.488;2023-03-16T09:57:30;98319.91;;;20.14;58.74
63009;BME280;49099;28.428;-16.488;2023-03-16T10:00:09;98318.03;;;20.26;58.23
63009;BME280;49099;28.428;-16.488;2023-03-16T10:02:59;98310.88;;;20.30;58.42
63009;BME280;49099;28.428;-16.488;2023-03-16T10:05:31;98317.41;;;20.42;57.49
63009;BME280;49099;28.428;-16.488;2023-03-16T10:08:12;98323.75;;;20.46;57.15
63009;BME280;49099;28.428;-16.488;2023-03-16T10:13:39;98328.41;;;20.37;58.45
63009;BME280;49099;28.428;-16.488;2023-03-16T10:16:14;98322.13;;;20.33;59.27
63009;BME280;49099;28.428;-16.488;2023-03-16T10:18:46;98335.78;;;20.27;60.84
63009;BME280;49099;28.428;-16.488;2023-03-16T10:21:16;98349.03;;;20.33;60.70
63009;BME280;49099;28.428;-16.488;2023-03-16T10:23:45;98352.63;;;20.37;60.69
63009;BME280;49099;28.428;-16.488;2023-03-16T10:26:20;98360.72;;;20.37;61.02
63009;BME280;49099;28.428;-16.488;2023-03-16T10:28:49;98368.16;;;20.40;61.22
63009;BME280;49099;28.428;-16.488;2023-03-16T10:31:20;98368.34;;;20.35;62.34
63009;BME280;49099;28.428;-16.488;2023-03-16T10:33:57;98384.06;;;20.33;62.37
63009;BME280;49099;28.428;-16.488;2023-03-16T10:36:33;98389.03;;;20.43;61.83
63009;BME280;49099;28.428;-16.488;2023-03-16T10:39:07;98400.28;;;20.45;62.01
63009;BME280;49099;28.428;-16.488;2023-03-16T10:41:40;98407.09;;;20.42;61.56
63009;BME280;49099;28.428;-16.488;2023-03-16T10:44:10;98400.28;;;20.45;63.21
63009;BME280;49099;28.428;-16.488;2023-03-16T10:46:49;98401.66;;;20.51;62.38
63009;BME280;49099;28.428;-16.488;2023-03-16T10:49:23;98398.81;;;20.68;61.86
63009;BME280;49099;28.428;-16.488;2023-03-16T10:51:55;98401.97;;;20.70;62.50
63009;BME280;49099;28.428;-16.488;2023-03-16T10:54:57;98383.56;;;20.72;63.25
63009;BME280;49099;28.428;-16.488;2023-03-16T10:57:33;98382.53;;;20.65;63.43
63009;BME280;49099;28.428;-16.488;2023-03-16T11:02:41;98370.09;;;20.72;62.85
63009;BME280;49099;28.428;-16.488;2023-03-16T11:05:24;98353.69;;;20.77;63.05
63009;BME280;49099;28.428;-16.488;2023-03-16T11:08:23;98355.59;;;20.77;62.93
63009;BME280;49099;28.428;-16.488;2023-03-16T11:10:57;98360.00;;;20.81;63.07
63009;BME280;49099;28.428;-16.488;2023-03-16T11:13:31;98352.34;;;20.83;62.98
63009;BME280;49099;28.428;-16.488;2023-03-16T11:16:26;98353.03;;;20.80;63.46
63009;BME280;49099;28.428;-16.488;2023-03-16T11:19:04;98355.84;;;20.84;62.85
63009;BME280;49099;28.428;-16.488;2023-03-16T11:26:58;98367.53;;;20.88;61.72
63009;BME280;49099;28.428;-16.488;2023-03-16T11:32:04;98360.22;;;21.01;61.83
63009;BME280;49099;28.428;-16.488;2023-03-16T11:34:32;98363.41;;;21.03;61.92
63009;BME280;49099;28.428;-16.488;2023-03-16T11:37:50;98360.16;;;21.09;61.82
63009;BME280;49099;28.428;-16.488;2023-03-16T11:40:42;98353.63;;;21.23;61.62
63009;BME280;49099;28.428;-16.488;2023-03-16T11:46:19;98345.00;;;21.29;61.54
63009;BME280;49099;28.428;-16.488;2023-03-16T12:03:15;98347.69;;;21.54;61.09
63009;BME280;49099;28.428;-16.488;2023-03-16T12:09:20;98350.16;;;21.47;61.56
63009;BME280;49099;28.428;-16.488;2023-03-16T12:12:03;98341.63;;;21.57;61.04
63009;BME280;49099;28.428;-16.488;2023-03-16T12:14:43;98329.94;;;21.40;60.69
63009;BME280;49099;28.428;-16.488;2023-03-16T12:17:27;98327.00;;;21.46;60.57
63009;BME280;49099;28.428;-16.488;2023-03-16T12:20:18;98330.50;;;21.46;60.77
63009;BME280;49099;28.428;-16.488;2023-03-16T12:22:54;98317.09;;;21.62;60.61
63009;BME280;49099;28.428;-16.488;2023-03-16T12:25:29;98315.03;;;21.71;59.86
63009;BME280;49099;28.428;-16.488;2023-03-16T12:28:00;98302.44;;;21.75;59.72
63009;BME280;49099;28.428;-16.488;2023-03-16T12:38:43;98288.06;;;21.99;58.74
63009;BME280;49099;28.428;-16.488;2023-03-16T12:41:32;98281.69;;;21.91;59.18
63009;BME280;49099;28.428;-16.488;2023-03-16T12:46:47;98272.47;;;21.92;59.35
63009;BME280;49099;28.428;-16.488;2023-03-16T12:49:15;98277.41;;;21.90;58.91
63009;BME280;49099;28.428;-16.488;2023-03-16T12:51:43;98271.72;;;21.80;59.45
63009;BME280;49099;28.428;-16.488;2023-03-16T12:54:22;98276.88;;;21.85;58.81
63009;BME280;49099;28.428;-16.488;2023-03-16T12:56:59;98276.88;;;21.85;59.48
63009;BME280;49099;28.428;-16.488;2023-03-16T12:59:38;98280.03;;;21.87;59.26
63009;BME280;49099;28.428;-16.488;2023-03-16T13:02:18;98280.56;;;21.92;59.03
63009;BME280;49099;28.428;-16.488;2023-03-16T13:04:57;98278.94;;;22.04;58.71
63009;BME280;49099;28.428;-16.488;2023-03-16T13:07:28;98272.84;;;22.07;58.86
63009;BME280;49099;28.428;-16.488;2023-03-16T13:10:08;98261.84;;;22.12;58.44
63009;BME280;49099;28.428;-16.488;2023-03-16T13:12:38;98264.53;;;22.12;58.29
63009;BME280;49099;28.428;-16.488;2023-03-16T13:17:46;98261.34;;;22.22;58.52
63009;BME280;49099;28.428;-16.488;2023-03-16T13:20:34;98271.38;;;22.37;58.13
63009;BME280;49099;28.428;-16.488;2023-03-16T13:26:27;98252.56;;;22.57;57.75
63009;BME280;49099;28.428;-16.488;2023-03-16T13:28:51;98264.25;;;22.61;57.56
63009;BME280;49099;28.428;-16.488;2023-03-16T13:33:47;98255.78;;;22.62;57.20
63009;BME280;49099;28.428;-16.488;2023-03-16T13:36:17;98263.03;;;22.74;56.98
63009;BME280;49099;28.428;-16.488;2023-03-16T13:39:01;98255.63;;;22.87;56.54
63009;BME280;49099;28.428;-16.488;2023-03-16T13:41:30;98262.00;;;22.94;56.56
63009;BME280;49099;28.428;-16.488;2023-03-16T13:43:57;98264.44;;;22.99;56.36
63009;BME280;49099;28.428;-16.488;2023-03-16T13:46:28;98258.09;;;22.92;56.04
63009;BME280;49099;28.428;-16.488;2023-03-16T13:48:58;98260.50;;;22.81;56.05
63009;BME280;49099;28.428;-16.488;2023-03-16T13:51:31;98269.91;;;22.71;56.53
63009;BME280;49099;28.428;-16.488;2023-03-16T13:54:16;98282.22;;;22.69;57.07
63009;BME280;49099;28.428;-16.488;2023-03-16T13:56:44;98277.69;;;22.73;56.66
63009;BME280;49099;28.428;-16.488;2023-03-16T13:59:12;98294.34;;;22.75;56.24
63009;BME280;49099;28.428;-16.488;2023-03-16T14:01:43;98287.88;;;22.79;56.17
63009;BME280;49099;28.428;-16.488;2023-03-16T14:04:11;98278.91;;;22.75;56.18
63009;BME280;49099;28.428;-16.488;2023-03-16T14:06:54;98279.69;;;22.76;56.60